createdAt,value
2018-07-06T00:02:40.116Z,3.87
2018-07-06T00:05:25.683Z,3.67
2018-07-06T00:08:11.637Z,3.13
2018-07-06T00:10:57.153Z,3.53
2018-07-06T00:13:37.474Z,3.90
2018-07-06T00:16:23.379Z,4.37
2018-07-06T00:19:09.259Z,5.20
2018-07-06T00:21:54.739Z,4.67
2018-07-06T00:24:40.938Z,7.90
2018-07-06T00:27:26.725Z,5.40
2018-07-06T00:30:12.822Z,5.27
2018-07-06T00:32:58.362Z,4.57
2018-07-06T00:35:44.196Z,4.17
2018-07-06T00:38:29.696Z,4.27
2018-07-06T00:41:15.367Z,5.10
2018-07-06T00:44:00.588Z,4.50
2018-07-06T00:46:46.143Z,4.97
2018-07-06T00:49:31.449Z,6.47
2018-07-06T00:52:17.030Z,6.40
2018-07-06T00:55:02.393Z,6.70
2018-07-06T00:57:53.565Z,7.63
2018-07-06T01:00:39.067Z,5.17
2018-07-06T01:03:24.833Z,6.43
2018-07-06T01:06:10.286Z,4.30
2018-07-06T01:08:56.307Z,4.37
2018-07-06T01:11:42.003Z,5.30
2018-07-06T01:14:27.793Z,4.27
2018-07-06T01:17:16.556Z,4.83
2018-07-06T01:20:02.307Z,6.00
2018-07-06T01:22:42.085Z,7.60
2018-07-06T01:25:27.966Z,5.67
2018-07-06T01:28:13.359Z,6.53
2018-07-06T01:30:59.445Z,5.60
2018-07-06T01:33:44.972Z,6.70
2018-07-06T01:36:30.927Z,6.87
2018-07-06T01:39:16.199Z,6.37
2018-07-06T01:42:02.080Z,5.70
2018-07-06T01:44:47.492Z,6.90
2018-07-06T01:47:27.934Z,6.17
2018-07-06T01:50:13.408Z,7.63
2018-07-06T01:53:05.346Z,8.47
2018-07-06T01:55:51.004Z,8.30
2018-07-06T01:58:36.949Z,9.77
2018-07-06T02:01:16.763Z,9.50
2018-07-06T02:04:02.664Z,12.93
2018-07-06T02:06:48.500Z,9.57
2018-07-06T02:09:34.223Z,10.27
2018-07-06T02:12:19.903Z,10.60
2018-07-06T02:15:06.529Z,10.07
2018-07-06T02:17:52.141Z,11.57
2018-07-06T02:20:37.908Z,9.87
2018-07-06T02:23:23.350Z,10.70
2018-07-06T02:26:09.372Z,12.27
2018-07-06T02:28:55.051Z,10.97
2018-07-06T02:31:35.282Z,10.47
2018-07-06T02:34:21.000Z,13.80
2018-07-06T02:37:07.056Z,12.13
2018-07-06T02:39:52.675Z,12.83
2018-07-06T02:42:32.833Z,12.63
2018-07-06T02:45:18.539Z,14.37
2018-07-06T02:48:04.416Z,13.33
2018-07-06T02:50:50.264Z,14.67
2018-07-06T02:53:36.307Z,11.03
2018-07-06T02:56:21.979Z,14.17
2018-07-06T02:59:07.830Z,14.40
2018-07-06T03:01:55.465Z,15.43
2018-07-06T03:04:41.704Z,13.13
2018-07-06T03:07:27.394Z,13.67
2018-07-06T03:10:13.168Z,12.50
2018-07-06T03:12:58.752Z,12.63
2018-07-06T03:15:38.947Z,12.33
2018-07-06T03:18:24.666Z,12.77
2018-07-06T03:21:10.699Z,13.27
2018-07-06T03:23:56.609Z,13.60
2018-07-06T03:26:42.803Z,12.43
2018-07-06T03:29:28.568Z,11.60
2018-07-06T03:32:14.641Z,14.03
2018-07-06T03:35:00.278Z,11.87
2018-07-06T03:37:46.065Z,13.80
2018-07-06T03:40:31.724Z,13.50
2018-07-06T03:43:17.820Z,12.23
2018-07-06T03:46:09.479Z,12.13
2018-07-06T03:48:55.340Z,14.33
2018-07-06T03:51:40.819Z,11.80
2018-07-06T03:54:26.812Z,13.47
2018-07-06T03:57:12.514Z,13.77
2018-07-06T03:59:58.591Z,13.57
2018-07-06T04:02:44.391Z,13.87
2018-07-06T04:05:30.276Z,12.10
2018-07-06T04:08:16.032Z,15.93
2018-07-06T04:11:02.059Z,13.87
2018-07-06T04:13:47.546Z,14.87
2018-07-06T04:16:33.496Z,15.00
2018-07-06T04:19:19.403Z,16.40
2018-07-06T04:21:59.773Z,16.60
2018-07-06T04:24:45.617Z,15.93
2018-07-06T04:27:25.862Z,20.23
2018-07-06T04:30:11.608Z,20.37
2018-07-06T04:32:51.777Z,19.93
2018-07-06T04:35:37.356Z,20.67
2018-07-06T04:38:23.148Z,19.23
2018-07-06T04:41:08.921Z,21.43
2018-07-06T04:43:49.193Z,20.30
2018-07-06T04:46:35.147Z,22.53
2018-07-06T04:49:21.174Z,19.47
2018-07-06T04:52:06.868Z,27.90
2018-07-06T04:54:53.000Z,25.17
2018-07-06T04:57:38.703Z,23.83
2018-07-06T05:00:24.619Z,27.07
2018-07-06T05:03:10.327Z,26.77
2018-07-06T05:05:56.451Z,28.23
2018-07-06T05:08:42.088Z,25.93
2018-07-06T05:11:27.889Z,25.90
2018-07-06T05:14:13.458Z,26.67
2018-07-06T05:16:53.782Z,25.57
2018-07-06T05:19:39.253Z,29.27
2018-07-06T05:22:25.112Z,25.57
2018-07-06T05:25:10.817Z,24.97
2018-07-06T05:27:56.792Z,23.40
2018-07-06T05:30:42.246Z,21.33
2018-07-06T05:33:28.118Z,20.93
2018-07-06T05:36:13.804Z,19.53
2018-07-06T05:38:59.835Z,19.17
2018-07-06T05:41:45.439Z,17.67
2018-07-06T05:44:31.081Z,13.77
2018-07-06T05:47:17.108Z,14.03
2018-07-06T05:50:03.091Z,14.73
2018-07-06T05:52:48.781Z,9.77
2018-07-06T05:55:34.883Z,8.43
2018-07-06T05:58:20.443Z,9.80
2018-07-06T06:01:01.799Z,6.37
2018-07-06T06:03:48.037Z,6.17
2018-07-06T06:06:34.116Z,7.33
2018-07-06T06:09:01.037Z,5.17
2018-07-06T06:11:29.880Z,6.40
2018-07-06T06:13:59.077Z,5.67
2018-07-06T06:16:27.875Z,11.47
2018-07-06T06:18:56.637Z,5.23
2018-07-06T06:21:25.747Z,4.27
2018-07-06T06:23:54.387Z,3.43
2018-07-06T06:26:31.620Z,5.17
2018-07-06T06:29:00.631Z,5.13
2018-07-06T06:31:29.952Z,3.17
2018-07-06T06:34:02.401Z,4.60
2018-07-06T06:36:33.041Z,4.57
2018-07-06T06:39:04.041Z,5.40
2018-07-06T06:41:33.315Z,4.07
2018-07-06T06:44:02.224Z,5.23
2018-07-06T06:46:31.418Z,4.03
2018-07-06T06:49:00.385Z,5.53
2018-07-06T06:51:29.301Z,6.77
2018-07-06T06:53:58.965Z,8.77
2018-07-06T06:56:27.904Z,4.93
2018-07-06T06:58:57.268Z,6.70
2018-07-06T07:01:26.455Z,6.67
2018-07-06T07:03:55.645Z,7.07
2018-07-06T07:06:24.760Z,6.13
2018-07-06T07:08:54.160Z,6.20
2018-07-06T07:11:22.992Z,9.23
2018-07-06T07:13:51.881Z,7.33
2018-07-06T07:16:21.135Z,6.07
2018-07-06T07:18:50.064Z,6.60
2018-07-06T07:21:19.056Z,7.40
2018-07-06T07:23:48.158Z,7.30
2018-07-06T07:26:17.077Z,7.57
2018-07-06T07:28:45.970Z,7.70
2018-07-06T07:31:15.424Z,7.93
2018-07-06T07:33:44.385Z,12.50
2018-07-06T07:36:13.198Z,8.80
2018-07-06T07:38:42.611Z,7.97
2018-07-06T07:41:11.388Z,7.90
2018-07-06T07:43:40.235Z,8.20
2018-07-06T07:46:09.378Z,8.90
2018-07-06T07:48:38.318Z,11.70
2018-07-06T07:51:53.820Z,9.47
2018-07-06T07:54:26.793Z,11.17
2018-07-06T07:56:57.283Z,11.43
2018-07-06T07:59:27.920Z,8.10
2018-07-06T08:01:57.641Z,12.03
2018-07-06T08:04:26.583Z,10.30
2018-07-06T08:06:56.198Z,10.93
2018-07-06T08:09:25.747Z,15.97
2018-07-06T08:11:58.088Z,11.60
2018-07-06T08:14:27.461Z,12.47
2018-07-06T08:16:56.309Z,11.70
2018-07-06T08:19:25.166Z,11.33
2018-07-06T08:21:54.043Z,11.23
2018-07-06T08:24:22.816Z,11.80
2018-07-06T08:26:51.749Z,15.33
2018-07-06T08:29:20.663Z,13.80
2018-07-06T08:31:49.433Z,12.93
2018-07-06T08:34:35.498Z,12.10
2018-07-06T08:37:51.242Z,11.93
2018-07-06T08:40:21.557Z,12.97
2018-07-06T08:42:52.410Z,16.50
2018-07-06T08:45:27.949Z,17.77
2018-07-06T08:47:56.589Z,13.97
2018-07-06T08:50:25.459Z,16.07
2018-07-06T08:52:55.344Z,15.53
2018-07-06T08:55:24.534Z,15.47
2018-07-06T08:57:54.754Z,16.43
2018-07-06T09:00:23.650Z,12.33
2018-07-06T09:02:52.647Z,13.27
2018-07-06T09:05:22.549Z,14.63
2018-07-06T09:07:51.193Z,9.87
2018-07-06T09:10:19.999Z,12.60
2018-07-06T09:12:49.753Z,12.70
2018-07-06T09:15:18.516Z,12.13
2018-07-06T09:17:47.297Z,12.73
2018-07-06T09:20:16.691Z,13.13
2018-07-06T09:22:45.285Z,8.67
2018-07-06T09:25:14.080Z,12.07
2018-07-06T09:27:43.195Z,11.27
2018-07-06T09:30:11.970Z,11.50
2018-07-06T09:32:40.802Z,10.73
2018-07-06T09:35:09.896Z,12.30
2018-07-06T09:37:38.673Z,9.83
2018-07-06T09:40:08.047Z,11.23
2018-07-06T09:42:37.377Z,11.10
2018-07-06T09:45:06.228Z,12.03
2018-07-06T09:47:34.976Z,10.03
2018-07-06T09:50:04.079Z,15.13
2018-07-06T09:52:32.702Z,14.60
2018-07-06T09:55:01.737Z,10.13
2018-07-06T09:57:30.851Z,11.37
2018-07-06T09:59:59.643Z,12.07
2018-07-06T10:02:28.386Z,8.67
2018-07-06T10:04:57.466Z,10.67
2018-07-06T10:07:26.240Z,11.17
2018-07-06T10:09:55.508Z,11.70
2018-07-06T10:12:24.688Z,8.83
2018-07-06T10:14:53.453Z,11.90
2018-07-06T10:17:22.220Z,12.33
2018-07-06T10:19:51.335Z,8.83
2018-07-06T10:22:20.172Z,9.73
2018-07-06T10:24:48.977Z,11.30
2018-07-06T10:27:17.972Z,8.97
2018-07-06T10:29:58.787Z,8.70
2018-07-06T10:32:28.928Z,7.70
2018-07-06T10:34:58.480Z,9.47
2018-07-06T10:37:27.749Z,15.17
2018-07-06T10:39:57.035Z,8.10
2018-07-06T10:42:25.739Z,6.33
2018-07-06T10:44:54.610Z,9.60
2018-07-06T10:47:23.813Z,8.40
2018-07-06T10:49:52.676Z,9.30
2018-07-06T10:52:21.469Z,10.53
2018-07-06T10:54:50.483Z,10.43
2018-07-06T10:57:19.149Z,9.03
2018-07-06T10:59:48.830Z,5.83
2018-07-06T11:02:17.789Z,10.00
2018-07-06T11:04:46.584Z,8.30
2018-07-06T11:07:15.426Z,5.63
2018-07-06T11:09:44.668Z,5.87
2018-07-06T11:12:13.464Z,12.73
2018-07-06T11:14:42.253Z,12.47
2018-07-06T11:17:11.179Z,9.00
2018-07-06T11:19:39.810Z,7.40
2018-07-06T11:22:08.696Z,8.17
2018-07-06T11:24:38.057Z,11.90
2018-07-06T11:27:06.656Z,6.73
2018-07-06T11:29:35.490Z,7.93
2018-07-06T11:32:04.707Z,13.37
2018-07-06T11:34:33.575Z,5.90
2018-07-06T11:37:02.391Z,4.70
2018-07-06T11:39:31.480Z,8.07
2018-07-06T11:42:00.298Z,6.40
2018-07-06T11:44:28.915Z,7.13
2018-07-06T11:46:58.161Z,8.23
2018-07-06T11:49:27.008Z,7.73
2018-07-06T11:51:55.796Z,6.33
2018-07-06T11:54:25.238Z,7.47
2018-07-06T11:56:54.012Z,4.63
2018-07-06T11:59:22.843Z,6.17
2018-07-06T12:01:52.435Z,8.97
2018-07-06T12:04:21.383Z,5.10
2018-07-06T12:06:50.079Z,7.17
2018-07-06T12:09:19.208Z,6.83
2018-07-06T12:11:48.071Z,7.43
2018-07-06T12:14:16.861Z,5.00
2018-07-06T12:16:46.326Z,4.43
2018-07-06T12:19:15.074Z,3.97
2018-07-06T12:21:43.882Z,5.40
2018-07-06T12:24:13.051Z,5.80
2018-07-06T12:26:41.819Z,4.40
2018-07-06T12:29:10.637Z,3.13
2018-07-06T12:31:39.753Z,5.37
2018-07-06T12:34:08.543Z,7.50
2018-07-06T12:36:37.674Z,4.20
2018-07-06T12:39:06.982Z,3.37
2018-07-06T12:41:35.636Z,2.20
2018-07-06T12:44:04.587Z,4.90
2018-07-06T12:46:33.550Z,2.20
2018-07-06T12:49:02.755Z,4.37
2018-07-06T12:51:31.367Z,2.93
2018-07-06T12:54:00.455Z,5.20
2018-07-06T12:56:29.286Z,4.80
2018-07-06T12:58:58.140Z,3.73
2018-07-06T13:01:27.055Z,2.57
2018-07-06T13:03:55.865Z,1.37
2018-07-06T13:06:24.887Z,2.37
2018-07-06T13:08:53.850Z,4.73
2018-07-06T13:11:22.647Z,4.53
2018-07-06T13:13:51.447Z,5.13
2018-07-06T13:16:20.280Z,4.67
2018-07-06T13:18:49.139Z,4.83
2018-07-06T13:21:17.844Z,3.70
2018-07-06T13:23:47.079Z,3.80
2018-07-06T13:26:16.012Z,3.20
2018-07-06T13:28:44.857Z,3.00
2018-07-06T13:31:13.699Z,3.50
2018-07-06T13:33:42.471Z,3.67
2018-07-06T13:36:11.170Z,3.07
2018-07-06T13:38:40.344Z,4.10
2018-07-06T13:41:10.767Z,4.60
2018-07-06T13:43:39.595Z,5.40
2018-07-06T13:46:08.235Z,4.90
2018-07-06T13:48:40.420Z,7.10
2018-07-06T13:51:09.257Z,6.77
2018-07-06T13:53:38.068Z,3.30
2018-07-06T13:56:07.059Z,4.20
2018-07-06T13:58:35.995Z,1.63
2018-07-06T14:01:04.900Z,3.37
2018-07-06T14:03:34.177Z,5.50
2018-07-06T14:06:02.988Z,3.47
2018-07-06T14:08:31.794Z,6.97
2018-07-06T14:11:00.751Z,1.90
2018-07-06T14:13:29.613Z,5.27
2018-07-06T14:15:58.938Z,4.17
2018-07-06T14:18:28.144Z,3.67
2018-07-06T14:20:56.944Z,2.70
2018-07-06T14:23:26.038Z,2.87
2018-07-06T14:25:55.431Z,4.83
2018-07-06T14:28:24.279Z,6.20
2018-07-06T14:30:53.419Z,3.60
2018-07-06T14:33:22.504Z,3.90
2018-07-06T14:35:51.385Z,3.80
2018-07-06T14:38:20.109Z,6.37
2018-07-06T14:40:48.988Z,3.60
2018-07-06T14:43:17.771Z,4.07
2018-07-06T14:45:48.827Z,4.70
2018-07-06T14:48:17.610Z,4.10
2018-07-06T14:50:46.420Z,3.27
2018-07-06T14:53:15.844Z,5.60
2018-07-06T14:55:44.626Z,6.07
2018-07-06T14:58:13.419Z,2.07
2018-07-06T15:00:43.017Z,3.97
2018-07-06T15:03:11.962Z,2.57
2018-07-06T15:05:40.832Z,3.17
2018-07-06T15:08:09.978Z,5.30
2018-07-06T15:10:38.801Z,4.23
2018-07-06T15:13:07.623Z,3.20
2018-07-06T15:15:36.456Z,2.80
2018-07-06T15:18:05.448Z,6.77
2018-07-06T15:20:34.296Z,4.17
2018-07-06T15:23:03.460Z,3.63
2018-07-06T15:25:32.272Z,5.03
2018-07-06T15:28:01.055Z,4.83
2018-07-06T15:30:30.319Z,3.33
2018-07-06T15:32:59.123Z,6.87
2018-07-06T15:35:27.923Z,4.93
2018-07-06T15:37:57.096Z,4.43
2018-07-06T15:40:25.895Z,3.13
2018-07-06T15:42:54.836Z,2.10
2018-07-06T15:45:30.021Z,6.07
2018-07-06T15:47:58.851Z,4.20
2018-07-06T15:50:27.455Z,2.87
2018-07-06T15:52:56.596Z,4.83
2018-07-06T15:55:25.379Z,4.70
2018-07-06T15:57:54.191Z,4.33
2018-07-06T16:00:23.376Z,1.87
2018-07-06T16:02:52.212Z,5.27
2018-07-06T16:05:21.081Z,6.40
2018-07-06T16:07:50.038Z,7.03
2018-07-06T16:10:19.205Z,4.97
2018-07-06T16:12:48.029Z,2.87
2018-07-06T16:15:17.335Z,6.77
2018-07-06T16:17:46.164Z,8.33
2018-07-06T16:20:14.767Z,3.27
2018-07-06T16:22:43.911Z,7.73
2018-07-06T16:25:12.704Z,6.90
2018-07-06T16:27:41.477Z,5.83
2018-07-06T16:30:10.588Z,4.70
2018-07-06T16:32:39.416Z,3.00
2018-07-06T16:35:08.228Z,4.57
2018-07-06T16:37:37.428Z,5.67
2018-07-06T16:40:06.327Z,6.03
2018-07-06T16:42:35.074Z,5.10
2018-07-06T16:45:04.346Z,6.27
2018-07-06T16:47:33.513Z,6.07
2018-07-06T16:50:02.348Z,5.30
2018-07-06T16:52:31.423Z,6.00
2018-07-06T16:55:00.300Z,3.07
2018-07-06T16:57:29.205Z,3.73
2018-07-06T16:59:58.411Z,5.80
2018-07-06T17:02:27.198Z,5.93
2018-07-06T17:04:55.983Z,3.97
2018-07-06T17:07:25.157Z,10.33
2018-07-06T17:09:53.941Z,12.40
2018-07-06T17:12:22.780Z,4.20
2018-07-06T17:14:51.868Z,4.37
2018-07-06T17:17:20.639Z,5.93
2018-07-06T17:19:49.297Z,5.63
2018-07-06T17:22:18.459Z,3.87
2018-07-06T17:24:47.563Z,3.07
2018-07-06T17:27:16.338Z,7.10
2018-07-06T17:29:45.529Z,6.47
2018-07-06T17:32:14.412Z,5.13
2018-07-06T17:34:43.244Z,7.33
2018-07-06T17:37:12.202Z,7.67
2018-07-06T17:39:40.991Z,8.80
2018-07-06T17:42:09.889Z,5.00
2018-07-06T17:44:38.869Z,7.23
2018-07-06T17:47:08.042Z,6.07
2018-07-06T17:49:36.980Z,4.23
2018-07-06T17:52:06.274Z,11.67
2018-07-06T17:54:35.052Z,6.60
2018-07-06T17:57:03.782Z,10.37
2018-07-06T17:59:32.663Z,6.93
2018-07-06T18:02:01.459Z,13.10
2018-07-06T18:04:30.253Z,10.77
2018-07-06T18:06:59.120Z,11.87
2018-07-06T18:09:27.963Z,11.83
2018-07-06T18:11:56.859Z,7.93
2018-07-06T18:14:26.102Z,6.43
2018-07-06T18:16:54.978Z,5.57
2018-07-06T18:19:23.871Z,8.90
2018-07-06T18:21:52.959Z,7.83
2018-07-06T18:24:21.761Z,5.37
2018-07-06T18:26:50.543Z,3.90
2018-07-06T18:29:19.656Z,7.40
2018-07-06T18:31:48.467Z,8.20
2018-07-06T18:34:17.354Z,8.03
2018-07-06T18:36:46.535Z,7.80
2018-07-06T18:39:15.496Z,5.53
2018-07-06T18:41:44.300Z,9.10
2018-07-06T18:44:13.414Z,7.03
2018-07-06T18:46:42.263Z,6.50
2018-07-06T18:49:11.065Z,9.17
2018-07-06T18:51:40.296Z,7.53
2018-07-06T18:54:09.063Z,7.07
2018-07-06T18:56:37.844Z,5.63
2018-07-06T18:59:07.179Z,7.50
2018-07-06T19:01:36.896Z,4.67
2018-07-06T19:04:06.076Z,8.07
2018-07-06T19:06:35.181Z,5.63
2018-07-06T19:09:04.787Z,7.73
2018-07-06T19:11:33.751Z,11.53
2018-07-06T19:14:02.987Z,8.17
2018-07-06T19:16:31.743Z,7.27
2018-07-06T19:19:00.488Z,9.03
2018-07-06T19:21:29.560Z,8.30
2018-07-06T19:23:58.390Z,6.63
2018-07-06T19:26:27.173Z,7.37
2018-07-06T19:28:56.238Z,6.73
2018-07-06T19:31:25.014Z,7.90
2018-07-06T19:33:54.181Z,8.87
2018-07-06T19:36:23.314Z,9.90
2018-07-06T19:38:52.124Z,8.60
2018-07-06T19:41:20.924Z,5.00
2018-07-06T19:43:50.100Z,7.47
2018-07-06T19:46:19.099Z,10.33
2018-07-06T19:48:47.936Z,11.13
2018-07-06T19:51:17.178Z,11.00
2018-07-06T19:53:45.935Z,6.67
2018-07-06T19:56:14.708Z,6.53
2018-07-06T19:58:43.658Z,6.70
2018-07-06T20:01:12.301Z,8.90
2018-07-06T20:03:41.223Z,11.80
2018-07-06T20:06:10.439Z,5.20
2018-07-06T20:08:39.336Z,10.23
2018-07-06T20:11:08.232Z,10.30
2018-07-06T20:13:37.493Z,11.53
2018-07-06T20:16:06.317Z,6.03
2018-07-06T20:18:35.432Z,6.17
2018-07-06T20:21:04.609Z,7.23
2018-07-06T20:23:33.394Z,7.57
2018-07-06T20:26:02.240Z,5.73
2018-07-06T20:28:31.211Z,11.87
2018-07-06T20:30:59.823Z,6.50
2018-07-06T20:33:28.592Z,9.07
2018-07-06T20:35:57.686Z,6.07
2018-07-06T20:38:26.539Z,7.03
2018-07-06T20:40:55.308Z,7.77
2018-07-06T20:43:24.473Z,8.17
2018-07-06T20:45:59.288Z,7.83
2018-07-06T20:48:28.179Z,10.10
2018-07-06T20:50:57.092Z,8.10
2018-07-06T20:53:25.880Z,8.20
2018-07-06T20:55:54.934Z,5.90
2018-07-06T20:58:24.063Z,11.30
2018-07-06T21:00:52.916Z,6.17
2018-07-06T21:03:21.732Z,7.90
2018-07-06T21:05:50.652Z,8.13
2018-07-06T21:08:19.271Z,10.97
2018-07-06T21:10:48.371Z,6.47
2018-07-06T21:13:17.385Z,14.50
2018-07-06T21:15:46.167Z,10.83
2018-07-06T21:18:15.062Z,8.67
2018-07-06T21:20:43.831Z,12.43
2018-07-06T21:23:12.599Z,9.30
2018-07-06T21:25:42.267Z,7.00
2018-07-06T21:28:11.100Z,10.97
2018-07-06T21:30:39.956Z,10.73
2018-07-06T21:33:09.127Z,4.67
2018-07-06T21:35:38.208Z,5.47
2018-07-06T21:38:06.880Z,11.27
2018-07-06T21:40:35.828Z,7.43
2018-07-06T21:43:04.623Z,7.53
2018-07-06T21:45:39.639Z,8.80
2018-07-06T21:48:08.627Z,10.93
2018-07-06T21:50:37.440Z,5.80
2018-07-06T21:53:06.718Z,9.70
2018-07-06T21:55:35.520Z,12.47
2018-07-06T21:58:04.336Z,10.13
2018-07-06T22:00:38.109Z,9.97
2018-07-06T22:03:08.134Z,8.37
2018-07-06T22:05:37.572Z,12.03
2018-07-06T22:08:07.360Z,12.17
2018-07-06T22:10:36.761Z,9.63
2018-07-06T22:13:06.291Z,6.00
2018-07-06T22:15:44.058Z,12.13
2018-07-06T22:18:14.387Z,6.00
2018-07-06T22:20:44.558Z,8.30
2018-07-06T22:23:14.111Z,7.07
2018-07-06T22:25:43.114Z,10.13
2018-07-06T22:28:11.927Z,7.43
2018-07-06T22:30:41.100Z,7.17
2018-07-06T22:33:09.990Z,10.40
2018-07-06T22:35:38.796Z,6.80
2018-07-06T22:38:07.980Z,8.67
2018-07-06T22:40:36.749Z,6.77
2018-07-06T22:43:05.614Z,9.40
2018-07-06T22:45:40.895Z,8.97
2018-07-06T22:48:09.664Z,7.50
2018-07-06T22:50:38.431Z,6.47
2018-07-06T22:53:07.672Z,11.70
2018-07-06T22:55:37.443Z,6.57
2018-07-06T22:58:06.305Z,9.20
2018-07-06T23:00:35.284Z,8.47
2018-07-06T23:03:05.359Z,10.97
2018-07-06T23:05:34.185Z,9.60
2018-07-06T23:08:03.612Z,13.17
2018-07-06T23:10:32.475Z,13.10
2018-07-06T23:13:01.404Z,8.13
2018-07-06T23:15:30.143Z,6.87
2018-07-06T23:17:58.927Z,9.93
2018-07-06T23:20:27.631Z,9.27
2018-07-06T23:23:14.360Z,6.57
2018-07-06T23:25:44.269Z,9.20
2018-07-06T23:28:13.247Z,8.80
2018-07-06T23:30:42.465Z,5.33
2018-07-06T23:33:11.778Z,8.53
2018-07-06T23:35:40.678Z,8.37
2018-07-06T23:38:09.942Z,8.23
2018-07-06T23:40:38.704Z,10.30
2018-07-06T23:43:07.617Z,8.33
2018-07-06T23:45:42.795Z,13.60
2018-07-06T23:48:11.976Z,9.97
2018-07-06T23:50:40.745Z,11.43
2018-07-06T23:53:09.743Z,5.97
2018-07-06T23:55:38.524Z,8.87
2018-07-06T23:58:07.294Z,10.10
